createdAt,value
2023-01-01T00:01:34.875Z,99.53
2023-01-01T00:04:41.789Z,99.71
2023-01-01T00:07:47.154Z,99.96
2023-01-01T00:10:54.941Z,99.97
2023-01-01T00:14:00.897Z,99.74
2023-01-01T00:17:08.903Z,99.55
2023-01-01T00:20:15.138Z,99.67
2023-01-01T00:23:20.986Z,100.00
2023-01-01T00:26:35.307Z,99.81
2023-01-01T00:29:38.780Z,100.00
2023-01-01T00:32:43.786Z,100.00
2023-01-01T00:35:50.019Z,100.00
2023-01-01T00:38:55.813Z,100.00
2023-01-01T00:42:02.123Z,100.00
2023-01-01T00:45:08.383Z,100.00
2023-01-01T00:48:14.698Z,100.00
2023-01-01T00:51:20.056Z,100.00
2023-01-01T00:54:25.973Z,99.58
2023-01-01T00:57:32.074Z,99.07
2023-01-01T01:00:40.070Z,98.96
2023-01-01T01:03:45.952Z,99.08
2023-01-01T01:06:53.104Z,98.29
2023-01-01T01:09:58.844Z,97.81
2023-01-01T01:13:05.811Z,97.97
2023-01-01T01:16:12.534Z,98.49
2023-01-01T01:19:21.891Z,98.58
2023-01-01T01:22:29.180Z,98.56
2023-01-01T01:25:35.220Z,98.54
2023-01-01T01:28:48.831Z,97.71
2023-01-01T01:31:49.119Z,97.51
2023-01-01T01:34:55.883Z,97.83
2023-01-01T01:38:02.105Z,98.29
2023-01-01T01:41:08.646Z,98.29
2023-01-01T01:44:38.893Z,98.45
2023-01-01T01:48:04.180Z,98.42
2023-01-01T01:51:09.089Z,98.65
2023-01-01T01:54:18.887Z,99.10
2023-01-01T01:57:24.361Z,99.28
2023-01-01T02:00:24.312Z,99.31
2023-01-01T02:03:52.662Z,99.24
2023-01-01T02:06:51.749Z,99.21
2023-01-01T02:09:57.695Z,99.72
2023-01-01T02:12:57.864Z,99.97
2023-01-01T02:16:28.180Z,100.00
2023-01-01T02:20:08.519Z,100.00
2023-01-01T02:24:02.237Z,100.00
2023-01-01T02:27:21.253Z,100.00
2023-01-01T02:30:27.621Z,99.77
2023-01-01T02:33:36.722Z,99.46
2023-01-01T02:36:43.339Z,99.00
2023-01-01T02:39:49.889Z,98.50
2023-01-01T02:42:55.919Z,99.11
2023-01-01T02:46:01.804Z,99.66
2023-01-01T02:49:10.784Z,99.72
2023-01-01T02:52:42.244Z,99.42
2023-01-01T02:56:02.529Z,99.81
2023-01-01T02:59:48.173Z,99.59
2023-01-01T03:03:30.918Z,99.19
2023-01-01T03:06:43.167Z,100.00
2023-01-01T03:10:11.725Z,99.96
2023-01-01T03:13:24.756Z,100.00
2023-01-01T03:16:38.673Z,100.00
2023-01-01T03:19:46.178Z,100.00
2023-01-01T03:22:52.381Z,100.00
2023-01-01T03:26:09.049Z,100.00
2023-01-01T03:29:16.721Z,100.00
2023-01-01T03:32:27.038Z,100.00
2023-01-01T03:35:33.037Z,100.00
2023-01-01T03:38:48.233Z,100.00
2023-01-01T03:42:07.851Z,100.00
2023-01-01T03:45:26.463Z,100.00
2023-01-01T03:48:32.375Z,99.60
2023-01-01T03:52:14.103Z,99.63
2023-01-01T03:55:48.214Z,100.00
2023-01-01T03:59:08.854Z,100.00
2023-01-01T04:02:14.913Z,100.00
2023-01-01T04:05:20.784Z,99.95
2023-01-01T04:08:27.195Z,99.21
2023-01-01T04:11:54.289Z,97.46
2023-01-01T04:15:01.074Z,97.79
2023-01-01T04:18:06.534Z,98.48
2023-01-01T04:21:12.271Z,99.17
2023-01-01T04:24:18.093Z,99.29
2023-01-01T04:27:24.663Z,99.58
2023-01-01T04:30:31.293Z,99.64
2023-01-01T04:33:36.587Z,99.96
2023-01-01T04:36:43.023Z,100.00
2023-01-01T04:39:47.987Z,100.00
2023-01-01T04:42:54.671Z,100.00
2023-01-01T04:46:02.188Z,98.88
2023-01-01T04:49:07.871Z,98.77
2023-01-01T04:52:14.009Z,99.56
2023-01-01T04:55:19.645Z,100.00
2023-01-01T04:58:25.195Z,99.31
2023-01-01T05:01:39.148Z,99.09
2023-01-01T05:04:44.675Z,99.70
2023-01-01T05:07:52.333Z,99.82
2023-01-01T05:10:59.498Z,100.00
2023-01-01T05:14:09.244Z,99.87
2023-01-01T05:17:15.493Z,99.88
2023-01-01T05:20:23.471Z,100.00
2023-01-01T05:23:32.152Z,100.00
2023-01-01T05:26:40.879Z,100.00
2023-01-01T05:29:46.711Z,100.00
2023-01-01T05:32:52.889Z,100.00
2023-01-01T05:35:59.768Z,100.00
2023-01-01T05:39:06.024Z,100.00
2023-01-01T05:42:11.854Z,100.00
2023-01-01T05:45:18.629Z,100.00
2023-01-01T05:48:24.337Z,100.00
2023-01-01T05:51:28.866Z,100.00
2023-01-01T05:54:33.993Z,100.00
2023-01-01T05:57:38.946Z,100.00
2023-01-01T06:00:45.165Z,100.00
2023-01-01T06:03:50.215Z,100.00
2023-01-01T06:06:56.321Z,100.00
2023-01-01T06:10:01.978Z,100.00
2023-01-01T06:13:13.120Z,100.00
2023-01-01T06:16:17.223Z,100.00
2023-01-01T06:19:22.818Z,100.00
2023-01-01T06:22:28.340Z,100.00
2023-01-01T06:25:34.812Z,100.00
2023-01-01T06:28:33.024Z,100.00
2023-01-01T06:31:26.670Z,100.00
2023-01-01T06:34:32.333Z,100.00
2023-01-01T06:37:37.310Z,100.00
2023-01-01T06:40:42.566Z,100.00
2023-01-01T06:43:49.599Z,100.00
2023-01-01T06:46:49.406Z,100.00
2023-01-01T06:49:55.571Z,100.00
2023-01-01T06:53:03.224Z,100.00
2023-01-01T06:56:08.879Z,100.00
2023-01-01T06:59:07.069Z,100.00
2023-01-01T07:02:01.512Z,100.00
2023-01-01T07:05:08.162Z,100.00
2023-01-01T07:08:13.895Z,100.00
2023-01-01T07:11:19.046Z,100.00
2023-01-01T07:14:24.700Z,100.00
2023-01-01T07:17:30.526Z,100.00
2023-01-01T07:20:35.957Z,100.00
2023-01-01T07:23:44.586Z,100.00
2023-01-01T07:26:49.931Z,100.00
2023-01-01T07:29:55.431Z,100.00
2023-01-01T07:33:01.312Z,100.00
2023-01-01T07:36:06.634Z,100.00
2023-01-01T07:39:12.422Z,100.00
2023-01-01T07:42:18.010Z,100.00
2023-01-01T07:45:26.623Z,100.00
2023-01-01T07:48:36.129Z,100.00
2023-01-01T07:51:39.978Z,100.00
2023-01-01T07:54:45.409Z,100.00
2023-01-01T07:57:51.234Z,100.00
2023-01-01T08:01:00.008Z,100.00
2023-01-01T08:04:07.700Z,100.00
2023-01-01T08:07:13.113Z,100.00
2023-01-01T08:10:18.741Z,100.00
2023-01-01T08:13:24.094Z,100.00
2023-01-01T08:16:30.046Z,100.00
2023-01-01T08:19:35.074Z,100.00
2023-01-01T08:22:40.663Z,100.00
2023-01-01T08:25:39.534Z,100.00
2023-01-01T08:28:45.722Z,100.00
2023-01-01T08:31:51.339Z,100.00
2023-01-01T08:34:57.707Z,100.00
2023-01-01T08:38:03.124Z,100.00
2023-01-01T08:41:07.885Z,100.00
2023-01-01T08:44:12.783Z,100.00
2023-01-01T08:47:18.610Z,100.00
2023-01-01T08:50:25.112Z,100.00
2023-01-01T08:53:31.863Z,100.00
2023-01-01T08:56:38.202Z,100.00
2023-01-01T08:59:44.563Z,100.00
2023-01-01T09:02:50.189Z,100.00
2023-01-01T09:05:56.379Z,100.00
2023-01-01T09:09:02.182Z,100.00
2023-01-01T09:12:10.677Z,100.00
2023-01-01T09:15:16.567Z,100.00
2023-01-01T09:18:21.859Z,100.00
2023-01-01T09:21:27.592Z,100.00
2023-01-01T09:24:32.459Z,100.00
2023-01-01T09:27:37.964Z,100.00
2023-01-01T09:30:44.017Z,100.00
2023-01-01T09:33:49.903Z,100.00
2023-01-01T09:36:55.460Z,100.00
2023-01-01T09:40:01.493Z,100.00
2023-01-01T09:43:19.987Z,100.00
2023-01-01T09:46:31.457Z,100.00
2023-01-01T09:49:40.144Z,100.00
2023-01-01T09:53:06.116Z,100.00
2023-01-01T09:56:17.583Z,100.00
2023-01-01T09:59:24.772Z,100.00
2023-01-01T10:03:06.492Z,100.00
2023-01-01T10:06:20.042Z,100.00
2023-01-01T10:09:37.449Z,100.00
2023-01-01T10:13:13.422Z,100.00
2023-01-01T10:16:51.163Z,100.00
2023-01-01T10:19:59.532Z,99.27
2023-01-01T10:23:18.961Z,100.00
2023-01-01T10:26:29.341Z,100.00
2023-01-01T10:29:39.816Z,100.00
2023-01-01T10:32:49.942Z,99.14
2023-01-01T10:36:04.710Z,98.66
2023-01-01T10:39:11.073Z,99.07
2023-01-01T10:42:17.529Z,98.63
2023-01-01T10:45:29.606Z,98.28
2023-01-01T10:48:40.329Z,97.99
2023-01-01T10:51:47.205Z,97.34
2023-01-01T10:54:55.167Z,96.19
2023-01-01T10:58:01.546Z,95.40
2023-01-01T11:01:14.652Z,94.45
2023-01-01T11:04:30.839Z,94.62
2023-01-01T11:07:47.443Z,94.56
2023-01-01T11:10:53.091Z,95.24
2023-01-01T11:13:59.462Z,96.14
2023-01-01T11:17:04.927Z,96.67
2023-01-01T11:20:12.080Z,96.96
2023-01-01T11:23:41.815Z,96.61
2023-01-01T11:26:54.636Z,95.89
2023-01-01T11:29:50.039Z,95.97
2023-01-01T11:32:55.251Z,95.17
2023-01-01T11:36:08.898Z,95.17
2023-01-01T11:39:42.495Z,95.30
2023-01-01T11:42:51.279Z,95.69
2023-01-01T11:45:58.354Z,96.89
2023-01-01T11:48:57.566Z,97.30
2023-01-01T11:51:50.468Z,97.51
2023-01-01T11:54:56.201Z,97.97
2023-01-01T11:58:19.343Z,96.55
2023-01-01T12:01:56.253Z,97.93
2023-01-01T12:05:13.575Z,97.75
2023-01-01T12:08:19.301Z,95.83
2023-01-01T12:11:30.409Z,96.39
2023-01-01T12:14:46.294Z,97.30
2023-01-01T12:18:21.949Z,96.00
2023-01-01T12:21:36.028Z,95.53
2023-01-01T12:24:48.619Z,94.88
2023-01-01T12:28:31.945Z,94.79
2023-01-01T12:32:03.720Z,95.24
2023-01-01T12:35:31.490Z,95.22
2023-01-01T12:38:58.036Z,95.44
2023-01-01T12:42:53.908Z,95.21
2023-01-01T12:46:34.169Z,94.27
2023-01-01T12:50:10.812Z,94.92
2023-01-01T12:53:49.598Z,96.78
2023-01-01T12:57:25.593Z,96.12
2023-01-01T13:00:34.199Z,96.38
2023-01-01T13:04:03.313Z,98.01
2023-01-01T13:07:12.588Z,97.36
2023-01-01T13:10:25.375Z,97.40
2023-01-01T13:13:32.049Z,97.01
2023-01-01T13:16:51.253Z,96.67
2023-01-01T13:19:57.826Z,96.81
2023-01-01T13:23:03.430Z,96.98
2023-01-01T13:26:33.274Z,97.78
2023-01-01T13:29:40.555Z,98.10
2023-01-01T13:32:47.237Z,97.61
2023-01-01T13:35:53.145Z,97.96
2023-01-01T13:39:05.086Z,98.15
2023-01-01T13:42:11.234Z,97.69
2023-01-01T13:45:36.456Z,97.84
2023-01-01T13:48:46.636Z,97.95
2023-01-01T13:52:34.656Z,99.15
2023-01-01T13:56:05.923Z,98.40
2023-01-01T13:59:39.375Z,99.17
2023-01-01T14:02:45.675Z,99.39
2023-01-01T14:05:51.583Z,99.23
2023-01-01T14:08:57.444Z,99.14
2023-01-01T14:12:02.528Z,99.92
2023-01-01T14:15:07.045Z,99.68
2023-01-01T14:18:15.844Z,99.97
2023-01-01T14:21:23.792Z,100.00
2023-01-01T14:24:31.901Z,100.00
2023-01-01T14:27:37.684Z,100.00
2023-01-01T14:30:42.699Z,100.00
2023-01-01T14:33:50.332Z,100.00
2023-01-01T14:37:03.559Z,100.00
2023-01-01T14:40:35.785Z,100.00
2023-01-01T14:43:42.128Z,100.00
2023-01-01T14:46:47.709Z,100.00
2023-01-01T14:49:55.618Z,100.00
2023-01-01T14:53:03.691Z,100.00
2023-01-01T14:56:11.089Z,100.00
2023-01-01T14:59:32.625Z,100.00
2023-01-01T15:02:45.858Z,100.00
2023-01-01T15:05:51.919Z,100.00
2023-01-01T15:08:57.894Z,100.00
2023-01-01T15:12:06.008Z,100.00
2023-01-01T15:15:11.472Z,100.00
2023-01-01T15:18:16.963Z,100.00
2023-01-01T15:21:32.799Z,100.00
2023-01-01T15:24:39.935Z,100.00
2023-01-01T15:27:47.875Z,100.00
2023-01-01T15:30:52.716Z,100.00
2023-01-01T15:34:03.354Z,100.00
2023-01-01T15:37:10.251Z,100.00
2023-01-01T15:40:28.555Z,100.00
2023-01-01T15:43:45.606Z,100.00
2023-01-01T15:46:51.335Z,100.00
2023-01-01T15:49:56.567Z,100.00
2023-01-01T15:53:02.591Z,100.00
2023-01-01T15:56:14.035Z,100.00
2023-01-01T15:59:23.599Z,100.00
2023-01-01T16:02:33.414Z,100.00
2023-01-01T16:05:40.484Z,100.00
2023-01-01T16:08:45.242Z,100.00
2023-01-01T16:11:50.523Z,100.00
2023-01-01T16:14:56.793Z,100.00
2023-01-01T16:18:03.304Z,100.00
2023-01-01T16:21:10.967Z,100.00
2023-01-01T16:24:16.780Z,100.00
2023-01-01T16:27:22.728Z,100.00
2023-01-01T16:30:29.671Z,100.00
2023-01-01T16:33:35.765Z,100.00
2023-01-01T16:36:41.277Z,100.00
2023-01-01T16:39:40.416Z,100.00
2023-01-01T16:42:45.956Z,100.00
2023-01-01T16:45:51.927Z,100.00
2023-01-01T16:48:59.627Z,100.00
2023-01-01T16:52:04.551Z,100.00
2023-01-01T16:55:09.929Z,100.00
2023-01-01T16:58:47.914Z,100.00
2023-01-01T17:01:22.233Z,100.00
2023-01-01T17:04:28.357Z,100.00
2023-01-01T17:07:33.641Z,100.00
2023-01-01T17:10:39.978Z,100.00
2023-01-01T17:13:44.985Z,100.00
2023-01-01T17:16:50.094Z,100.00
2023-01-01T17:19:57.432Z,100.00
2023-01-01T17:23:03.151Z,99.71
2023-01-01T17:26:09.590Z,99.68
2023-01-01T17:29:15.560Z,99.69
2023-01-01T17:32:22.321Z,99.40
2023-01-01T17:35:32.997Z,99.33
2023-01-01T17:38:35.461Z,98.58
2023-01-01T17:41:41.763Z,98.25
2023-01-01T17:44:46.682Z,97.73
2023-01-01T17:47:53.802Z,98.46
2023-01-01T17:51:00.024Z,98.36
2023-01-01T17:54:08.864Z,98.08
2023-01-01T17:57:14.863Z,97.42
2023-01-01T18:00:20.869Z,97.19
2023-01-01T18:03:29.448Z,97.40
2023-01-01T18:06:40.261Z,98.20
2023-01-01T18:09:44.522Z,98.25
2023-01-01T18:12:51.344Z,98.68
2023-01-01T18:15:56.335Z,97.82
2023-01-01T18:19:01.693Z,98.30
2023-01-01T18:22:06.931Z,98.37
2023-01-01T18:25:13.096Z,98.05
2023-01-01T18:28:20.615Z,98.75
2023-01-01T18:31:31.321Z,98.96
2023-01-01T18:34:37.421Z,99.13
2023-01-01T18:37:43.394Z,98.99
2023-01-01T18:40:48.767Z,98.94
2023-01-01T18:43:55.620Z,98.71
2023-01-01T18:47:05.694Z,99.32
2023-01-01T18:50:38.921Z,99.56
2023-01-01T18:53:44.830Z,98.52
2023-01-01T18:56:51.861Z,98.47
2023-01-01T18:59:57.319Z,98.53
2023-01-01T19:03:17.544Z,98.41
2023-01-01T19:06:43.459Z,98.32
2023-01-01T19:09:54.186Z,98.03
2023-01-01T19:13:00.242Z,98.43
2023-01-01T19:16:30.221Z,98.57
2023-01-01T19:19:39.585Z,98.05
2023-01-01T19:22:46.220Z,98.97
2023-01-01T19:25:54.808Z,98.97
2023-01-01T19:29:07.937Z,99.57
2023-01-01T19:32:13.389Z,100.00
2023-01-01T19:35:18.886Z,99.67
2023-01-01T19:38:24.628Z,98.81
2023-01-01T19:41:30.100Z,98.36
2023-01-01T19:44:36.586Z,98.76
2023-01-01T19:47:44.651Z,98.25
2023-01-01T19:50:51.290Z,98.34
2023-01-01T19:53:56.437Z,98.58
2023-01-01T19:57:01.826Z,98.68
2023-01-01T20:00:07.174Z,98.99
2023-01-01T20:03:52.902Z,99.17
2023-01-01T20:06:14.210Z,98.91
2023-01-01T20:09:01.779Z,98.99
2023-01-01T20:11:55.136Z,98.92
2023-01-01T20:14:49.390Z,98.74
2023-01-01T20:17:57.044Z,98.49
2023-01-01T20:21:25.877Z,98.57
2023-01-01T20:24:28.192Z,98.70
2023-01-01T20:27:34.418Z,98.67
2023-01-01T20:30:40.117Z,97.47
2023-01-01T20:33:45.026Z,96.86
2023-01-01T20:37:01.448Z,96.35
2023-01-01T20:40:10.425Z,95.79
2023-01-01T20:43:17.049Z,95.23
2023-01-01T20:46:23.149Z,95.98
2023-01-01T20:49:29.070Z,96.17
2023-01-01T20:52:34.807Z,95.61
2023-01-01T20:55:40.039Z,95.73
2023-01-01T20:58:50.154Z,95.97
2023-01-01T21:01:56.999Z,96.36
2023-01-01T21:05:02.168Z,96.65
2023-01-01T21:08:09.519Z,96.41
2023-01-01T21:11:14.987Z,96.56
2023-01-01T21:14:20.577Z,97.43
2023-01-01T21:17:35.880Z,98.38
2023-01-01T21:20:48.138Z,98.05
2023-01-01T21:23:55.139Z,99.04
2023-01-01T21:27:01.751Z,98.79
2023-01-01T21:30:10.043Z,97.90
2023-01-01T21:33:16.613Z,96.88
2023-01-01T21:36:35.344Z,96.72
2023-01-01T21:39:42.990Z,97.25
2023-01-01T21:42:48.598Z,96.62
2023-01-01T21:45:58.219Z,96.60
2023-01-01T21:49:33.901Z,95.59
2023-01-01T21:52:33.170Z,95.55
2023-01-01T21:55:42.857Z,96.13
2023-01-01T21:59:08.816Z,95.38
2023-01-01T22:02:25.243Z,95.60
2023-01-01T22:05:36.417Z,95.88
2023-01-01T22:08:41.945Z,96.33
2023-01-01T22:11:48.234Z,95.76
2023-01-01T22:14:55.483Z,95.67
2023-01-01T22:18:00.675Z,95.44
2023-01-01T22:21:09.158Z,96.12
2023-01-01T22:24:14.779Z,95.47
2023-01-01T22:27:45.316Z,95.18
2023-01-01T22:30:57.203Z,94.67
2023-01-01T22:34:05.202Z,95.16
2023-01-01T22:37:09.998Z,95.05
2023-01-01T22:40:16.729Z,95.29
2023-01-01T22:43:20.065Z,94.90
2023-01-01T22:46:36.249Z,94.82
2023-01-01T22:49:53.115Z,94.83
2023-01-01T22:52:58.524Z,94.98
2023-01-01T22:56:03.791Z,95.57
2023-01-01T22:59:09.614Z,95.79
2023-01-01T23:02:15.107Z,95.36
2023-01-01T23:05:21.518Z,95.13
2023-01-01T23:08:26.930Z,95.31
2023-01-01T23:11:32.709Z,95.79
2023-01-01T23:14:56.152Z,96.35
2023-01-01T23:18:02.049Z,97.00
2023-01-01T23:21:07.875Z,97.19
2023-01-01T23:24:15.449Z,96.99
2023-01-01T23:27:22.310Z,96.91
2023-01-01T23:30:28.950Z,96.77
2023-01-01T23:33:35.015Z,96.60
2023-01-01T23:36:40.711Z,96.58
2023-01-01T23:39:45.737Z,96.33
2023-01-01T23:42:52.910Z,97.18
2023-01-01T23:45:58.753Z,97.48
2023-01-01T23:49:05.129Z,97.14
2023-01-01T23:52:04.520Z,97.46
2023-01-01T23:54:57.013Z,97.81
2023-01-01T23:58:02.851Z,97.96
